sensor_id;sensor_type;location;lat;lon;timestamp;P1;durP1;ratioP1;P2;durP2;ratioP2
5827;SDS011;42583;50.240;8.444;2023-06-10T00:03:53;9.43;;;4.60;;
5827;SDS011;42583;50.240;8.444;2023-06-10T00:18:54;9.70;;;4.32;;
5827;SDS011;42583;50.240;8.444;2023-06-10T00:34:01;6.45;;;4.47;;
5827;SDS011;42583;50.240;8.444;2023-06-10T00:49:02;6.85;;;4.20;;
5827;SDS011;42583;50.240;8.444;2023-06-10T01:04:03;7.30;;;3.90;;
5827;SDS011;42583;50.240;8.444;2023-06-10T01:19:04;7.00;;;4.00;;
5827;SDS011;42583;50.240;8.444;2023-06-10T01:34:07;6.85;;;3.92;;
5827;SDS011;42583;50.240;8.444;2023-06-10T01:49:10;6.25;;;4.10;;
5827;SDS011;42583;50.240;8.444;2023-06-10T02:04:10;8.48;;;4.18;;
5827;SDS011;42583;50.240;8.444;2023-06-10T02:19:11;8.15;;;3.83;;
5827;SDS011;42583;50.240;8.444;2023-06-10T02:34:12;7.43;;;4.22;;
5827;SDS011;42583;50.240;8.444;2023-06-10T02:49:13;7.00;;;4.10;;
5827;SDS011;42583;50.240;8.444;2023-06-10T03:04:14;7.28;;;4.00;;
5827;SDS011;42583;50.240;8.444;2023-06-10T03:19:14;7.20;;;4.40;;
5827;SDS011;42583;50.240;8.444;2023-06-10T03:34:15;9.73;;;4.57;;
5827;SDS011;42583;50.240;8.444;2023-06-10T03:49:16;7.57;;;4.15;;
5827;SDS011;42583;50.240;8.444;2023-06-10T04:04:17;9.38;;;4.50;;
5827;SDS011;42583;50.240;8.444;2023-06-10T04:19:17;9.82;;;4.78;;
5827;SDS011;42583;50.240;8.444;2023-06-10T04:34:18;7.53;;;4.65;;
5827;SDS011;42583;50.240;8.444;2023-06-10T04:49:19;7.10;;;4.50;;
5827;SDS011;42583;50.240;8.444;2023-06-10T05:04:19;9.55;;;4.55;;
5827;SDS011;42583;50.240;8.444;2023-06-10T05:19:20;9.77;;;5.22;;
5827;SDS011;42583;50.240;8.444;2023-06-10T05:34:21;8.75;;;4.97;;
5827;SDS011;42583;50.240;8.444;2023-06-10T05:49:21;8.85;;;5.00;;
5827;SDS011;42583;50.240;8.444;2023-06-10T06:04:22;6.68;;;4.85;;
5827;SDS011;42583;50.240;8.444;2023-06-10T06:19:22;9.93;;;4.95;;
5827;SDS011;42583;50.240;8.444;2023-06-10T06:34:23;9.43;;;4.82;;
5827;SDS011;42583;50.240;8.444;2023-06-10T06:49:23;6.90;;;4.70;;
5827;SDS011;42583;50.240;8.444;2023-06-10T07:04:24;6.38;;;4.60;;
5827;SDS011;42583;50.240;8.444;2023-06-10T07:19:24;7.82;;;4.32;;
5827;SDS011;42583;50.240;8.444;2023-06-10T07:34:25;11.20;;;4.40;;
5827;SDS011;42583;50.240;8.444;2023-06-10T07:49:25;7.95;;;4.13;;
5827;SDS011;42583;50.240;8.444;2023-06-10T08:04:26;5.47;;;3.95;;
5827;SDS011;42583;50.240;8.444;2023-06-10T08:19:26;7.25;;;4.35;;
5827;SDS011;42583;50.240;8.444;2023-06-10T08:34:27;7.20;;;4.00;;
5827;SDS011;42583;50.240;8.444;2023-06-10T08:49:29;8.15;;;4.50;;
5827;SDS011;42583;50.240;8.444;2023-06-10T09:04:30;6.32;;;4.00;;
5827;SDS011;42583;50.240;8.444;2023-06-10T09:19:31;9.32;;;4.43;;
5827;SDS011;42583;50.240;8.444;2023-06-10T09:34:32;7.93;;;4.07;;
5827;SDS011;42583;50.240;8.444;2023-06-10T09:49:32;7.32;;;4.05;;
5827;SDS011;42583;50.240;8.444;2023-06-10T10:04:34;6.93;;;3.78;;
5827;SDS011;42583;50.240;8.444;2023-06-10T10:19:37;5.65;;;3.92;;
5827;SDS011;42583;50.240;8.444;2023-06-10T10:34:57;8.25;;;3.90;;
5827;SDS011;42583;50.240;8.444;2023-06-10T10:50:15;7.63;;;4.13;;
5827;SDS011;42583;50.240;8.444;2023-06-10T11:05:17;10.15;;;3.75;;
5827;SDS011;42583;50.240;8.444;2023-06-10T11:20:41;7.83;;;3.70;;
5827;SDS011;42583;50.240;8.444;2023-06-10T11:35:50;5.45;;;3.20;;
5827;SDS011;42583;50.240;8.444;2023-06-10T11:50:52;4.83;;;3.00;;
5827;SDS011;42583;50.240;8.444;2023-06-10T12:06:03;5.90;;;2.88;;
5827;SDS011;42583;50.240;8.444;2023-06-10T12:21:18;6.72;;;3.10;;
5827;SDS011;42583;50.240;8.444;2023-06-10T12:36:20;7.88;;;3.60;;
5827;SDS011;42583;50.240;8.444;2023-06-10T12:51:20;7.57;;;3.75;;
5827;SDS011;42583;50.240;8.444;2023-06-10T13:06:21;8.50;;;3.63;;
5827;SDS011;42583;50.240;8.444;2023-06-10T13:21:24;6.22;;;3.20;;
5827;SDS011;42583;50.240;8.444;2023-06-10T13:36:25;5.20;;;3.80;;
5827;SDS011;42583;50.240;8.444;2023-06-10T13:51:26;8.20;;;4.35;;
5827;SDS011;42583;50.240;8.444;2023-06-10T14:06:26;7.20;;;3.90;;
5827;SDS011;42583;50.240;8.444;2023-06-10T14:21:27;10.27;;;3.95;;
5827;SDS011;42583;50.240;8.444;2023-06-10T14:36:28;5.30;;;3.37;;
5827;SDS011;42583;50.240;8.444;2023-06-10T14:51:28;6.67;;;3.80;;
5827;SDS011;42583;50.240;8.444;2023-06-10T15:06:29;8.57;;;3.33;;
5827;SDS011;42583;50.240;8.444;2023-06-10T15:21:29;4.90;;;3.33;;
5827;SDS011;42583;50.240;8.444;2023-06-10T15:36:30;4.83;;;3.17;;
5827;SDS011;42583;50.240;8.444;2023-06-10T15:51:31;7.57;;;3.60;;
5827;SDS011;42583;50.240;8.444;2023-06-10T16:06:34;5.13;;;3.30;;
5827;SDS011;42583;50.240;8.444;2023-06-10T16:21:36;5.13;;;3.38;;
5827;SDS011;42583;50.240;8.444;2023-06-10T16:36:39;6.30;;;3.28;;
5827;SDS011;42583;50.240;8.444;2023-06-10T16:51:40;6.20;;;3.50;;
5827;SDS011;42583;50.240;8.444;2023-06-10T17:06:41;6.80;;;3.28;;
5827;SDS011;42583;50.240;8.444;2023-06-10T17:21:41;5.38;;;3.60;;
5827;SDS011;42583;50.240;8.444;2023-06-10T17:36:42;5.95;;;3.95;;
5827;SDS011;42583;50.240;8.444;2023-06-10T17:51:42;7.45;;;4.32;;
5827;SDS011;42583;50.240;8.444;2023-06-10T18:06:43;9.73;;;4.57;;
5827;SDS011;42583;50.240;8.444;2023-06-10T18:21:44;10.53;;;4.60;;
5827;SDS011;42583;50.240;8.444;2023-06-10T18:36:44;6.35;;;4.15;;
5827;SDS011;42583;50.240;8.444;2023-06-10T18:51:45;6.10;;;3.90;;
5827;SDS011;42583;50.240;8.444;2023-06-10T19:06:47;5.80;;;3.75;;
5827;SDS011;42583;50.240;8.444;2023-06-10T19:21:48;7.87;;;4.07;;
5827;SDS011;42583;50.240;8.444;2023-06-10T19:36:48;7.70;;;4.07;;
5827;SDS011;42583;50.240;8.444;2023-06-10T19:51:49;5.55;;;4.15;;
5827;SDS011;42583;50.240;8.444;2023-06-10T20:06:51;8.77;;;4.77;;
5827;SDS011;42583;50.240;8.444;2023-06-10T20:21:51;7.25;;;5.05;;
5827;SDS011;42583;50.240;8.444;2023-06-10T20:36:52;7.80;;;4.47;;
5827;SDS011;42583;50.240;8.444;2023-06-10T20:51:53;6.55;;;4.60;;
5827;SDS011;42583;50.240;8.444;2023-06-10T21:06:53;5.82;;;4.20;;
5827;SDS011;42583;50.240;8.444;2023-06-10T21:21:54;7.40;;;4.10;;
5827;SDS011;42583;50.240;8.444;2023-06-10T21:36:55;7.85;;;4.50;;
5827;SDS011;42583;50.240;8.444;2023-06-10T21:51:56;6.95;;;4.80;;
5827;SDS011;42583;50.240;8.444;2023-06-10T22:06:56;5.57;;;4.20;;
5827;SDS011;42583;50.240;8.444;2023-06-10T22:21:57;12.38;;;4.75;;
5827;SDS011;42583;50.240;8.444;2023-06-10T22:36:58;6.03;;;4.57;;
5827;SDS011;42583;50.240;8.444;2023-06-10T22:51:58;9.50;;;4.32;;
5827;SDS011;42583;50.240;8.444;2023-06-10T23:06:59;6.45;;;4.50;;
5827;SDS011;42583;50.240;8.444;2023-06-10T23:22:00;8.20;;;4.43;;
5827;SDS011;42583;50.240;8.444;2023-06-10T23:37:00;6.78;;;4.50;;
5827;SDS011;42583;50.240;8.444;2023-06-10T23:52:01;7.43;;;4.75;;
